Webcam 1 more information Webcam 1


Webcam 2 more information Webcam 2


altri nostri siti meteo:

Pomeziameteo 1Sito sul meteo

Pomeziameteo DashboardSito sul meteo

Caput FrigorisSito sul meteo

BarcellonameteoSito sul meteo

MeteoipassiSito sul meteo

ViterbometeoSito sul meteo

MeteotortoretoSito sul meteo

MeteospinacetoSito sul meteo

MeteoardeaSito sul meteo

TortoretometeolidoSito sul meteo

MeteopalestrinaSito sul meteo

MeteocastelliSito sul meteo

MeteoGonzagaSito sul meteo

MeteoiserniaSito sul meteo

MeteolatinaSito sul meteo

RomaeurmeteoSito sul meteo

MeteomarconiaSito sul meteo

Stazione LineameteoSito sul meteo



Nessuna attenzione particolare richiesta.    Non ci sono allerte meteo

Report METAR

   
LIBP - Pescara
Dati ricevuti: 13-12-2017 18:50
Sereno  
Sereno  
   Vento: SW 9.3 km/h
Vento: SW 9.3 km/h
Temperatura: 9°C
Temperatura Vento: 8°C
P.to Rugiada: 8°C
Umidita: 94%
Barometro: 1017 hPa
Visibilita: oltre 10 km
dettagli cloud: Sereno
LIBP 131750Z 22005KT CAVOK 09/08 Q1017
LIRZ - Perugia
Dati ricevuti: 13-12-2017 17:50
DATI Obsoleti
Parzialmente nuvoloso  
Parzialmente nuvoloso  
   Vento: Variabile 5.6 km/h
Vento: Variabile 5.6 km/h
Temperatura: 5°C
Temperatura Vento: 4°C
P.to Rugiada: 5°C
Umidita: 100%
Barometro: 1017 hPa
Nuvole: Parzialmente nuvoloso
Visibilita: oltre 10 km
dettagli cloud: Parzialmente nuvoloso 4000 ft
LIRZ 131650Z VRB03KT 9999 SCT040 05/05 Q1017
LIQN - Rieti
Dati ricevuti: 13-12-2017 16:50
DATI Obsoleti
Poche nuvole  
Poche nuvole  
   Vento: SE 11.1 km/h
Vento: SE 11.1 km/h
Temperatura: 7°C
Temperatura Vento: 5°C
P.to Rugiada: 6°C
Umidita: 93%
Barometro: 1016 hPa
Nuvole: Poche nuvole
Visibilita: oltre 10 km
dettagli cloud: Poche nuvole 2500 ft
LIQN 131550Z 13006KT 9999 FEW025 07/06 Q1016
LIPY - Falconara
Dati ricevuti: 13-12-2017 18:50
Parzialmente nuvoloso  
Parzialmente nuvoloso  
   Vento: S 11.1 km/h
Vento: S 11.1 km/h
Temperatura: 9°C
Temperatura Vento: 7°C
P.to Rugiada: 5°C
Umidita: 76%
Barometro: 1016 hPa
Nuvole: Parzialmente nuvoloso
Visibilita: oltre 10 km
dettagli cloud: Parzialmente nuvoloso 4000 ft,
Parzialmente nuvoloso 7000 ft
LIPY 131750Z 20006KT 9999 SCT040 SCT070 09/05 Q1016
  

Script sviluppato da  Saratoga-weather.org Adattato per il modello da  Weerstation Leuven

Potete trovare le nostre info meteo anche a:

Weather Underground

AWEKAS

Citizen Weather Observer Program (CWOP)

HAMweather, WeatherForYou, PWS Weather

Strumentazione usata:

Stazione meteo
Oregon 928

Programma gestore dati meteo
WVIEW

Server per i dati meteo
Pc-WDS5

Oregon 928

WVIEW

Pc-WDS5